createdAt,value
2017-09-24T00:02:02.185Z,99406
2017-09-24T00:04:31.047Z,99409
2017-09-24T00:06:59.156Z,99401
2017-09-24T00:09:28.008Z,99400
2017-09-24T00:11:56.099Z,99395
2017-09-24T00:14:24.178Z,99397
2017-09-24T00:16:52.266Z,99392
2017-09-24T00:19:20.367Z,99399
2017-09-24T00:21:48.460Z,99395
2017-09-24T00:24:16.556Z,99391
2017-09-24T00:26:44.648Z,99395
2017-09-24T00:29:13.500Z,99405
2017-09-24T00:31:41.629Z,99390
2017-09-24T00:34:09.715Z,99392
2017-09-24T00:36:37.810Z,99403
2017-09-24T00:39:05.903Z,99401
2017-09-24T00:41:34.003Z,99399
2017-09-24T00:44:02.848Z,99400
2017-09-24T00:46:30.961Z,99400
2017-09-24T00:48:59.815Z,99402
2017-09-24T00:51:27.907Z,99410
2017-09-24T00:53:56.000Z,99401
2017-09-24T00:56:24.859Z,99401
2017-09-24T00:58:52.944Z,99409
2017-09-24T01:01:21.040Z,99406
2017-09-24T01:03:49.911Z,99408
2017-09-24T01:06:18.012Z,99401
2017-09-24T01:08:46.860Z,99399
2017-09-24T01:11:14.969Z,99405
2017-09-24T01:13:43.819Z,99406
2017-09-24T01:16:11.901Z,99404
2017-09-24T01:18:39.990Z,99404
2017-09-24T01:21:08.076Z,99408
2017-09-24T01:23:36.927Z,99411
2017-09-24T01:26:05.009Z,99408
2017-09-24T01:28:33.099Z,99406
2017-09-24T01:31:01.181Z,99402
2017-09-24T01:33:30.096Z,99406
2017-09-24T01:35:58.934Z,99407
2017-09-24T01:38:27.019Z,99409
2017-09-24T01:40:55.116Z,99407
2017-09-24T01:43:23.983Z,99409
2017-09-24T01:45:52.065Z,99410
2017-09-24T01:48:20.156Z,99409
2017-09-24T01:50:49.023Z,99400
2017-09-24T01:53:17.104Z,99411
2017-09-24T01:55:45.187Z,99407
2017-09-24T01:58:14.057Z,99406
2017-09-24T02:00:42.140Z,99410
2017-09-24T02:03:10.231Z,99406
2017-09-24T02:05:39.092Z,99414
2017-09-24T02:08:07.178Z,99412
2017-09-24T02:10:35.256Z,99403
2017-09-24T02:13:04.120Z,99409
2017-09-24T02:15:32.204Z,99401
2017-09-24T02:18:00.292Z,99400
2017-09-24T02:20:29.150Z,99402
2017-09-24T02:22:57.234Z,99406
2017-09-24T02:25:25.320Z,99403
2017-09-24T02:27:53.399Z,99404
2017-09-24T02:30:22.259Z,99407
2017-09-24T02:32:50.360Z,99411
2017-09-24T02:35:18.446Z,99399
2017-09-24T02:37:47.312Z,99404
2017-09-24T02:40:15.405Z,99398
2017-09-24T02:42:44.272Z,99398
2017-09-24T02:45:12.361Z,99385
2017-09-24T02:47:40.440Z,99392
2017-09-24T02:50:09.290Z,99391
2017-09-24T02:52:37.408Z,99396
2017-09-24T02:55:06.276Z,99392
2017-09-24T02:57:34.367Z,99385
2017-09-24T03:00:03.227Z,99395
2017-09-24T03:02:31.490Z,99393
2017-09-24T03:04:59.572Z,99396
2017-09-24T03:07:27.683Z,99395
2017-09-24T03:09:56.524Z,99393
2017-09-24T03:12:24.623Z,99384
2017-09-24T03:14:52.709Z,99384
2017-09-24T03:17:20.796Z,99384
2017-09-24T03:19:49.649Z,99398
2017-09-24T03:22:17.735Z,99392
2017-09-24T03:24:45.925Z,99391
2017-09-24T03:27:14.784Z,99394
2017-09-24T03:29:42.874Z,99396
2017-09-24T03:32:10.960Z,99402
2017-09-24T03:34:39.053Z,99401
2017-09-24T03:37:07.907Z,99396
2017-09-24T03:39:35.997Z,99396
2017-09-24T03:42:04.088Z,99400
2017-09-24T03:44:33.077Z,99406
2017-09-24T03:47:01.940Z,99402
2017-09-24T03:49:30.049Z,99396
2017-09-24T03:51:58.917Z,99401
2017-09-24T03:54:27.015Z,99407
2017-09-24T03:56:55.877Z,99405
2017-09-24T03:59:23.946Z,99406
2017-09-24T04:01:52.028Z,99412
2017-09-24T04:04:20.124Z,99408
2017-09-24T04:06:48.221Z,99407
2017-09-24T04:09:16.305Z,99396
2017-09-24T04:11:44.411Z,99418
2017-09-24T04:14:13.300Z,99410
2017-09-24T04:16:41.384Z,99419
2017-09-24T04:19:09.472Z,99418
2017-09-24T04:21:38.333Z,99418
2017-09-24T04:24:06.420Z,99420
2017-09-24T04:26:34.499Z,99430
2017-09-24T04:29:03.370Z,99428
2017-09-24T04:31:31.471Z,99416
2017-09-24T04:34:00.323Z,99420
2017-09-24T04:36:28.418Z,99413
2017-09-24T04:38:56.501Z,99414
2017-09-24T04:41:25.351Z,99421
2017-09-24T04:43:53.439Z,99424
2017-09-24T04:46:21.516Z,99431
2017-09-24T04:48:49.620Z,99420
2017-09-24T04:51:18.464Z,99428
2017-09-24T04:53:46.547Z,99422
2017-09-24T04:56:14.633Z,99431
2017-09-24T04:58:42.712Z,99436
2017-09-24T05:01:10.788Z,99435
2017-09-24T05:03:39.651Z,99446
2017-09-24T05:06:07.740Z,99440
2017-09-24T05:08:35.828Z,99445
2017-09-24T05:11:04.680Z,99448
2017-09-24T05:13:32.768Z,99450
2017-09-24T05:16:00.868Z,99452
2017-09-24T05:18:29.720Z,99447
2017-09-24T05:20:57.823Z,99460
2017-09-24T05:23:26.688Z,99448
2017-09-24T05:25:54.768Z,99447
2017-09-24T05:28:22.851Z,99451
2017-09-24T05:30:50.939Z,99453
2017-09-24T05:33:19.787Z,99457
2017-09-24T05:35:47.893Z,99452
2017-09-24T05:38:15.976Z,99462
2017-09-24T05:40:44.822Z,99451
2017-09-24T05:43:12.915Z,99453
2017-09-24T05:45:41.001Z,99445
2017-09-24T05:48:09.859Z,99450
2017-09-24T05:50:37.962Z,99447
2017-09-24T05:53:06.044Z,99441
2017-09-24T05:55:34.891Z,99448
2017-09-24T05:58:02.978Z,99449
2017-09-24T06:00:31.068Z,99453
2017-09-24T06:02:59.153Z,99467
2017-09-24T06:05:28.004Z,99465
2017-09-24T06:07:56.097Z,99453
2017-09-24T06:10:24.176Z,99452
2017-09-24T06:12:52.264Z,99449
2017-09-24T06:15:21.113Z,99455
2017-09-24T06:17:49.200Z,99447
2017-09-24T06:20:17.275Z,99451
2017-09-24T06:22:45.360Z,99468
2017-09-24T06:25:13.447Z,99458
2017-09-24T06:27:42.299Z,99457
2017-09-24T06:30:10.372Z,99465
2017-09-24T06:32:38.457Z,99467
2017-09-24T06:35:06.528Z,99476
2017-09-24T06:37:34.612Z,99472
2017-09-24T06:40:02.701Z,99478
2017-09-24T06:42:31.553Z,99477
2017-09-24T06:44:59.630Z,99486
2017-09-24T06:47:27.708Z,99484
2017-09-24T06:49:55.796Z,99482
2017-09-24T06:52:23.875Z,99480
2017-09-24T06:54:52.729Z,99479
2017-09-24T06:57:20.805Z,99485
2017-09-24T06:59:48.887Z,99485
2017-09-24T07:02:16.965Z,99485
2017-09-24T07:04:45.053Z,99485
2017-09-24T07:07:13.904Z,99484
2017-09-24T07:09:41.997Z,99489
2017-09-24T07:12:10.071Z,99484
2017-09-24T07:14:38.152Z,99487
2017-09-24T07:17:06.236Z,99488
2017-09-24T07:19:35.149Z,99486
2017-09-24T07:22:03.233Z,99486
2017-09-24T07:24:31.319Z,99487
2017-09-24T07:26:59.402Z,99494
2017-09-24T07:29:27.487Z,99494
2017-09-24T07:31:55.584Z,99494
2017-09-24T07:34:23.676Z,99495
2017-09-24T07:36:52.528Z,99502
2017-09-24T07:39:20.625Z,99505
2017-09-24T07:41:49.480Z,99500
2017-09-24T07:44:18.011Z,99508
2017-09-24T07:46:46.861Z,99505
2017-09-24T07:49:14.960Z,99502
2017-09-24T07:51:43.064Z,99505
2017-09-24T07:54:11.175Z,99491
2017-09-24T07:56:39.266Z,99494
2017-09-24T07:59:07.358Z,99487
2017-09-24T08:01:36.245Z,99488
2017-09-24T08:04:05.106Z,99484
2017-09-24T08:06:33.190Z,99482
2017-09-24T08:09:01.314Z,99489
2017-09-24T08:11:29.405Z,99487
2017-09-24T08:13:57.785Z,99497
2017-09-24T08:16:25.863Z,99502
2017-09-24T08:18:53.951Z,99506
2017-09-24T08:21:22.054Z,99508
2017-09-24T08:23:50.928Z,99511
2017-09-24T08:26:19.018Z,99509
2017-09-24T08:28:47.120Z,99502
2017-09-24T08:31:15.205Z,99507
2017-09-24T08:33:43.295Z,99505
2017-09-24T08:36:11.375Z,99510
2017-09-24T08:38:39.464Z,99512
2017-09-24T08:41:07.547Z,99509
2017-09-24T08:43:35.619Z,99494
2017-09-24T08:46:03.693Z,99496
2017-09-24T08:48:31.780Z,99501
2017-09-24T08:51:00.633Z,99493
2017-09-24T08:53:28.708Z,99498
2017-09-24T08:55:56.796Z,99501
2017-09-24T08:58:24.867Z,99499
2017-09-24T09:00:52.954Z,99494
2017-09-24T09:03:21.032Z,99487
2017-09-24T09:05:49.884Z,99490
2017-09-24T09:08:17.959Z,99487
2017-09-24T09:10:46.048Z,99489
2017-09-24T09:13:14.150Z,99490
2017-09-24T09:15:43.016Z,99490
2017-09-24T09:18:11.095Z,99492
2017-09-24T09:20:39.177Z,99489
2017-09-24T09:23:08.020Z,99489
2017-09-24T09:25:36.119Z,99496
2017-09-24T09:28:04.191Z,99497
2017-09-24T09:30:32.275Z,99505
2017-09-24T09:33:18.156Z,99504
2017-09-24T09:35:46.234Z,99497
2017-09-24T09:38:14.307Z,99488
2017-09-24T09:40:42.680Z,99494
2017-09-24T09:43:10.752Z,99485
2017-09-24T09:45:59.771Z,99489
2017-09-24T09:48:27.851Z,99481
2017-09-24T09:50:55.942Z,99487
2017-09-24T09:53:24.036Z,99480
2017-09-24T09:55:52.115Z,99484
2017-09-24T09:58:20.188Z,99479
2017-09-24T10:00:48.270Z,99473
2017-09-24T10:03:17.128Z,99481
2017-09-24T10:05:45.208Z,99484
2017-09-24T10:08:31.076Z,99483
2017-09-24T10:10:59.161Z,99478
2017-09-24T10:13:27.235Z,99478
2017-09-24T10:15:55.299Z,99486
2017-09-24T10:18:23.467Z,99485
2017-09-24T10:20:51.549Z,99478
2017-09-24T10:23:19.623Z,99478
2017-09-24T10:25:47.706Z,99476
2017-09-24T10:28:33.704Z,99478
2017-09-24T10:31:01.785Z,99468
2017-09-24T10:33:29.864Z,99470
2017-09-24T10:35:57.937Z,99470
2017-09-24T10:38:26.795Z,99468
2017-09-24T10:40:54.873Z,99470
2017-09-24T10:43:22.940Z,99464
2017-09-24T10:45:51.039Z,99463
2017-09-24T10:48:19.188Z,99454
2017-09-24T10:50:47.264Z,99449
2017-09-24T10:53:15.346Z,99453
2017-09-24T10:55:43.415Z,99451
2017-09-24T10:58:11.497Z,99449
2017-09-24T11:00:39.563Z,99452
2017-09-24T11:03:07.647Z,99443
2017-09-24T11:05:35.709Z,99449
2017-09-24T11:08:03.784Z,99455
2017-09-24T11:10:31.856Z,99451
2017-09-24T11:12:59.940Z,99447
2017-09-24T11:15:28.016Z,99450
2017-09-24T11:17:56.092Z,99454
2017-09-24T11:20:24.927Z,99448
2017-09-24T11:22:53.003Z,99449
2017-09-24T11:25:21.067Z,99449
2017-09-24T11:27:49.170Z,99444
2017-09-24T11:30:17.241Z,99447
2017-09-24T11:32:45.343Z,99449
2017-09-24T11:35:13.409Z,99445
2017-09-24T11:37:41.487Z,99437
2017-09-24T11:40:09.585Z,99449
2017-09-24T11:42:37.642Z,99446
2017-09-24T11:45:06.480Z,99436
2017-09-24T11:47:35.327Z,99443
2017-09-24T11:50:04.160Z,99440
2017-09-24T11:52:32.241Z,99446
2017-09-24T11:55:00.316Z,99439
2017-09-24T11:57:28.556Z,99442
2017-09-24T11:59:56.642Z,99439
2017-09-24T12:02:24.728Z,99439
2017-09-24T12:04:53.599Z,99433
2017-09-24T12:07:21.704Z,99431
2017-09-24T12:09:49.784Z,99429
2017-09-24T12:12:17.879Z,99421
2017-09-24T12:14:45.948Z,99422
2017-09-24T12:17:14.031Z,99425
2017-09-24T12:19:42.865Z,99424
2017-09-24T12:22:10.948Z,99427
2017-09-24T12:24:39.006Z,99433
2017-09-24T12:27:07.092Z,99428
2017-09-24T12:29:35.166Z,99421
2017-09-24T12:32:03.247Z,99417
2017-09-24T12:34:31.319Z,99413
2017-09-24T12:36:59.400Z,99415
2017-09-24T12:39:27.463Z,99414
2017-09-24T12:41:55.539Z,99415
2017-09-24T12:44:23.603Z,99422
2017-09-24T12:46:51.696Z,99417
2017-09-24T12:49:19.780Z,99413
2017-09-24T12:51:47.863Z,99412
2017-09-24T12:54:16.703Z,99414
2017-09-24T12:56:44.803Z,99409
2017-09-24T12:59:12.879Z,99407
2017-09-24T13:01:40.951Z,99408
2017-09-24T13:04:09.032Z,99414
2017-09-24T13:06:37.096Z,99402
2017-09-24T13:09:05.180Z,99396
2017-09-24T13:11:33.252Z,99402
2017-09-24T13:14:01.324Z,99399
2017-09-24T13:16:29.395Z,99389
2017-09-24T13:18:57.495Z,99399
2017-09-24T13:21:26.320Z,99400
2017-09-24T13:23:55.155Z,99400
2017-09-24T13:26:23.231Z,99404
2017-09-24T13:28:52.083Z,99390
2017-09-24T13:31:20.164Z,99394
2017-09-24T13:33:48.247Z,99398
2017-09-24T13:36:16.321Z,99401
2017-09-24T13:38:44.423Z,99405
2017-09-24T13:41:13.277Z,99396
2017-09-24T13:43:41.370Z,99404
2017-09-24T13:46:09.444Z,99400
2017-09-24T13:48:37.539Z,99396
2017-09-24T13:51:06.376Z,99401
2017-09-24T13:53:34.455Z,99401
2017-09-24T13:56:02.524Z,99399
2017-09-24T13:58:30.594Z,99396
2017-09-24T14:00:58.691Z,99393
2017-09-24T14:03:26.788Z,99398
2017-09-24T14:05:55.632Z,99402
2017-09-24T14:08:23.738Z,99403
2017-09-24T14:10:52.579Z,99396
2017-09-24T14:13:21.433Z,99402
2017-09-24T14:15:50.276Z,99407
2017-09-24T14:18:18.359Z,99405
2017-09-24T14:20:46.431Z,99406
2017-09-24T14:23:14.516Z,99403
2017-09-24T14:25:42.574Z,99410
2017-09-24T14:28:10.661Z,99410
2017-09-24T14:30:38.762Z,99414
2017-09-24T14:33:07.619Z,99412
2017-09-24T14:35:35.692Z,99410
2017-09-24T14:38:03.775Z,99402
2017-09-24T14:40:31.844Z,99411
2017-09-24T14:42:59.915Z,99406
2017-09-24T14:45:27.997Z,99410
2017-09-24T14:47:56.071Z,99408
2017-09-24T14:50:24.904Z,99405
2017-09-24T14:52:52.991Z,99403
2017-09-24T14:55:21.051Z,99403
2017-09-24T14:57:49.133Z,99410
2017-09-24T15:00:17.195Z,99408
2017-09-24T15:02:48.244Z,99405
2017-09-24T15:05:16.355Z,99410
2017-09-24T15:07:44.436Z,99405
2017-09-24T15:10:12.524Z,99411
2017-09-24T15:12:41.369Z,99409
2017-09-24T15:15:09.451Z,99416
2017-09-24T15:17:37.524Z,99416
2017-09-24T15:20:05.608Z,99416
2017-09-24T15:22:33.754Z,99422
2017-09-24T15:25:01.832Z,99421
2017-09-24T15:27:29.910Z,99427
2017-09-24T15:29:58.003Z,99429
2017-09-24T15:32:26.077Z,99424
2017-09-24T15:34:54.161Z,99415
2017-09-24T15:37:23.009Z,99428
2017-09-24T15:39:51.102Z,99426
2017-09-24T15:42:19.182Z,99432
2017-09-24T15:44:47.291Z,99429
2017-09-24T15:47:15.496Z,99429
2017-09-24T15:49:43.585Z,99437
2017-09-24T15:52:11.652Z,99435
2017-09-24T15:54:40.132Z,99431
2017-09-24T15:57:08.202Z,99429
2017-09-24T15:59:36.288Z,99434
2017-09-24T16:02:04.342Z,99435
2017-09-24T16:04:32.429Z,99441
2017-09-24T16:07:00.502Z,99439
2017-09-24T16:09:28.587Z,99448
2017-09-24T16:11:56.663Z,99442
2017-09-24T16:14:24.745Z,99440
2017-09-24T16:16:52.833Z,99443
2017-09-24T16:19:21.681Z,99448
2017-09-24T16:21:49.768Z,99457
2017-09-24T16:24:17.861Z,99446
2017-09-24T16:26:46.716Z,99448
2017-09-24T16:29:14.803Z,99449
2017-09-24T16:31:42.882Z,99447
2017-09-24T16:34:10.967Z,99447
2017-09-24T16:36:39.813Z,99458
2017-09-24T16:39:07.890Z,99456
2017-09-24T16:41:35.960Z,99454
2017-09-24T16:44:04.035Z,99454
2017-09-24T16:46:32.110Z,99455
2017-09-24T16:49:00.191Z,99454
2017-09-24T16:51:28.261Z,99452
2017-09-24T16:53:56.339Z,99459
2017-09-24T16:56:24.412Z,99449
2017-09-24T16:58:52.496Z,99451
2017-09-24T17:01:20.569Z,99450
2017-09-24T17:03:48.651Z,99446
2017-09-24T17:06:17.481Z,99448
2017-09-24T17:08:45.559Z,99451
2017-09-24T17:11:13.628Z,99453
2017-09-24T17:13:41.707Z,99442
2017-09-24T17:16:09.786Z,99448
2017-09-24T17:18:38.636Z,99450
2017-09-24T17:21:07.479Z,99446
2017-09-24T17:23:35.576Z,99453
2017-09-24T17:26:03.659Z,99439
2017-09-24T17:28:32.515Z,99450
2017-09-24T17:31:00.600Z,99446
2017-09-24T17:33:28.683Z,99451
2017-09-24T17:35:56.768Z,99454
2017-09-24T17:38:25.617Z,99453
2017-09-24T17:40:53.694Z,99449
2017-09-24T17:43:21.851Z,99448
2017-09-24T17:45:49.942Z,99450
2017-09-24T17:48:18.123Z,99457
2017-09-24T17:50:46.180Z,99456
2017-09-24T17:53:14.263Z,99455
2017-09-24T17:55:42.347Z,99466
2017-09-24T17:58:10.429Z,99468
2017-09-24T18:00:38.511Z,99461
2017-09-24T18:03:06.587Z,99466
2017-09-24T18:05:34.671Z,99470
2017-09-24T18:08:03.516Z,99468
2017-09-24T18:10:31.592Z,99471
2017-09-24T18:12:59.680Z,99480
2017-09-24T18:15:27.776Z,99478
2017-09-24T18:17:56.616Z,99471
2017-09-24T18:20:24.716Z,99474
2017-09-24T18:22:52.783Z,99464
2017-09-24T18:25:20.912Z,99469
2017-09-24T18:27:49.023Z,99473
2017-09-24T18:30:17.103Z,99471
2017-09-24T18:32:45.179Z,99469
2017-09-24T18:35:14.285Z,99468
2017-09-24T18:37:42.364Z,99475
2017-09-24T18:40:10.447Z,99474
2017-09-24T18:42:39.298Z,99479
2017-09-24T18:45:07.451Z,99476
2017-09-24T18:47:35.531Z,99472
2017-09-24T18:50:04.383Z,99485
2017-09-24T18:52:33.222Z,99476
2017-09-24T18:55:01.313Z,99473
2017-09-24T18:57:29.395Z,99474
2017-09-24T18:59:58.259Z,99480
2017-09-24T19:02:26.336Z,99470
2017-09-24T19:04:54.420Z,99477
2017-09-24T19:07:22.496Z,99468
2017-09-24T19:09:50.584Z,99475
2017-09-24T19:12:19.441Z,99484
2017-09-24T19:14:47.519Z,99478
2017-09-24T19:17:15.600Z,99477
2017-09-24T19:19:43.692Z,99488
2017-09-24T19:22:12.528Z,99483
2017-09-24T19:24:40.624Z,99484
2017-09-24T19:27:08.719Z,99488
2017-09-24T19:29:36.800Z,99496
2017-09-24T19:32:05.678Z,99500
2017-09-24T19:34:33.790Z,99492
2017-09-24T19:37:01.847Z,99498
2017-09-24T19:39:30.695Z,99494
2017-09-24T19:41:58.783Z,99489
2017-09-24T19:44:26.913Z,99495
2017-09-24T19:46:54.995Z,99495
2017-09-24T19:49:23.067Z,99489
2017-09-24T19:51:51.147Z,99487
2017-09-24T19:54:19.244Z,99490
2017-09-24T19:56:47.338Z,99499
2017-09-24T19:59:16.239Z,99503
2017-09-24T20:01:45.131Z,99497
2017-09-24T20:04:13.976Z,99499
2017-09-24T20:06:42.049Z,99501
2017-09-24T20:09:10.141Z,99497
2017-09-24T20:11:38.212Z,99493
2017-09-24T20:14:06.310Z,99491
2017-09-24T20:16:35.174Z,99480
2017-09-24T20:19:03.260Z,99484
2017-09-24T20:21:31.355Z,99494
2017-09-24T20:24:00.207Z,99487
2017-09-24T20:26:28.333Z,99490
2017-09-24T20:28:56.419Z,99491
2017-09-24T20:31:24.500Z,99494
2017-09-24T20:33:52.592Z,99493
2017-09-24T20:36:20.664Z,99496
2017-09-24T20:38:48.759Z,99502
2017-09-24T20:41:16.839Z,99498
2017-09-24T20:43:44.915Z,99496
2017-09-24T20:46:13.912Z,99501
2017-09-24T20:48:41.984Z,99509
2017-09-24T20:51:10.836Z,99505
2017-09-24T20:53:39.729Z,99510
2017-09-24T20:56:07.815Z,99511
2017-09-24T20:58:35.882Z,99511
2017-09-24T21:01:03.984Z,99510
2017-09-24T21:03:32.824Z,99516
2017-09-24T21:06:00.912Z,99511
2017-09-24T21:08:29.006Z,99514
2017-09-24T21:10:57.867Z,99511
2017-09-24T21:13:25.950Z,99513
2017-09-24T21:15:54.031Z,99507
2017-09-24T21:18:22.115Z,99518
2017-09-24T21:20:50.207Z,99523
2017-09-24T21:23:19.052Z,99517
2017-09-24T21:25:47.188Z,99515
2017-09-24T21:28:15.272Z,99529
2017-09-24T21:30:43.371Z,99516
2017-09-24T21:33:11.472Z,99526
2017-09-24T21:35:39.554Z,99525
2017-09-24T21:38:08.400Z,99520
2017-09-24T21:40:36.489Z,99527
2017-09-24T21:43:04.570Z,99528
2017-09-24T21:45:32.663Z,99524
2017-09-24T21:48:01.503Z,99525
2017-09-24T21:50:29.590Z,99536
2017-09-24T21:52:57.663Z,99528
2017-09-24T21:55:25.760Z,99527
2017-09-24T21:57:53.840Z,99527
2017-09-24T22:00:21.923Z,99520
2017-09-24T22:02:50.771Z,99518
2017-09-24T22:05:18.860Z,99515
2017-09-24T22:07:46.931Z,99515
2017-09-24T22:10:16.627Z,99519
2017-09-24T22:12:44.768Z,99521
2017-09-24T22:15:12.846Z,99519
2017-09-24T22:17:40.932Z,99525
2017-09-24T22:20:09.015Z,99515
2017-09-24T22:22:37.110Z,99513
2017-09-24T22:25:05.200Z,99504
2017-09-24T22:27:33.392Z,99505
2017-09-24T22:30:02.244Z,99505
2017-09-24T22:32:30.328Z,99502
2017-09-24T22:34:58.411Z,99501
2017-09-24T22:37:27.267Z,99488
2017-09-24T22:39:55.364Z,99499
2017-09-24T22:42:23.439Z,99500
2017-09-24T22:44:51.584Z,99494
2017-09-24T22:47:19.664Z,99492
2017-09-24T22:49:47.743Z,99498
2017-09-24T22:52:15.827Z,99497
2017-09-24T22:54:43.899Z,99490
2017-09-24T22:57:11.998Z,99502
2017-09-24T22:59:40.844Z,99491
2017-09-24T23:02:08.928Z,99492
2017-09-24T23:04:37.010Z,99492
2017-09-24T23:07:05.163Z,99489
2017-09-24T23:09:33.231Z,99488
2017-09-24T23:12:01.323Z,99494
2017-09-24T23:14:29.398Z,99495
2017-09-24T23:16:57.490Z,99493
2017-09-24T23:19:26.334Z,99490
2017-09-24T23:21:54.427Z,99481
2017-09-24T23:24:22.504Z,99479
2017-09-24T23:26:50.583Z,99495
2017-09-24T23:29:18.663Z,99493
2017-09-24T23:31:47.524Z,99502
2017-09-24T23:34:15.590Z,99494
2017-09-24T23:36:43.678Z,99494
2017-09-24T23:39:11.752Z,99488
2017-09-24T23:41:39.836Z,99491
2017-09-24T23:44:07.911Z,99489
2017-09-24T23:46:35.996Z,99499
2017-09-24T23:49:04.848Z,99500
2017-09-24T23:51:32.935Z,99485
2017-09-24T23:54:01.003Z,99489
2017-09-24T23:56:29.096Z,99483
2017-09-24T23:58:57.167Z,99487
